createdAt,value
2022-09-17T00:02:22.736Z,9.79
2022-09-17T00:05:25.801Z,9.78
2022-09-17T00:08:27.675Z,9.78
2022-09-17T00:11:30.372Z,9.81
2022-09-17T00:14:32.053Z,9.81
2022-09-17T00:17:36.718Z,9.84
2022-09-17T00:20:40.228Z,9.86
2022-09-17T00:23:45.384Z,9.87
2022-09-17T00:26:47.440Z,9.91
2022-09-17T00:29:49.072Z,9.91
2022-09-17T00:32:53.355Z,9.92
2022-09-17T00:36:00.624Z,9.91
2022-09-17T00:39:02.624Z,9.93
2022-09-17T00:42:10.627Z,9.90
2022-09-17T00:45:13.194Z,9.91
2022-09-17T00:48:14.788Z,9.93
2022-09-17T00:51:20.422Z,9.92
2022-09-17T00:54:22.154Z,9.91
2022-09-17T00:57:24.977Z,9.91
2022-09-17T01:00:26.970Z,9.89
2022-09-17T01:03:28.863Z,9.91
2022-09-17T01:06:34.402Z,9.91
2022-09-17T01:09:42.332Z,9.91
2022-09-17T01:12:50.107Z,9.91
2022-09-17T01:15:54.513Z,9.93
2022-09-17T01:19:00.878Z,9.91
2022-09-17T01:22:07.577Z,9.91
2022-09-17T01:25:23.160Z,9.91
2022-09-17T01:28:32.988Z,9.87
2022-09-17T01:31:39.055Z,9.88
2022-09-17T01:34:45.843Z,9.91
2022-09-17T01:37:57.853Z,9.91
2022-09-17T01:41:07.973Z,9.93
2022-09-17T01:44:11.839Z,9.91
2022-09-17T01:47:20.905Z,9.94
2022-09-17T01:50:25.442Z,9.91
2022-09-17T01:53:30.453Z,9.90
2022-09-17T01:56:34.075Z,9.88
2022-09-17T01:59:38.086Z,9.88
2022-09-17T02:02:46.105Z,9.89
2022-09-17T02:05:53.924Z,9.88
2022-09-17T02:08:57.655Z,9.88
2022-09-17T02:12:03.523Z,9.87
2022-09-17T02:15:07.822Z,9.85
2022-09-17T02:18:15.884Z,9.85
2022-09-17T02:21:22.531Z,9.83
2022-09-17T02:24:25.653Z,9.84
2022-09-17T02:27:35.212Z,9.81
2022-09-17T02:30:36.815Z,9.82
2022-09-17T02:33:41.268Z,9.80
2022-09-17T02:36:43.110Z,9.79
2022-09-17T02:39:44.692Z,9.79
2022-09-17T02:42:54.460Z,9.79
2022-09-17T02:46:03.328Z,9.76
2022-09-17T02:49:20.374Z,9.75
2022-09-17T02:52:27.717Z,9.75
2022-09-17T02:55:35.083Z,9.73
2022-09-17T02:58:41.336Z,9.75
2022-09-17T03:01:45.515Z,9.71
2022-09-17T03:04:49.434Z,9.71
2022-09-17T03:07:51.695Z,9.70
2022-09-17T03:10:53.962Z,9.70
2022-09-17T03:13:55.522Z,9.69
2022-09-17T03:16:57.515Z,9.69
2022-09-17T03:20:00.538Z,9.68
2022-09-17T03:23:02.827Z,9.66
2022-09-17T03:26:07.659Z,9.66
2022-09-17T03:29:09.345Z,9.62
2022-09-17T03:32:11.291Z,9.56
2022-09-17T03:35:15.011Z,9.54
2022-09-17T03:38:17.202Z,9.54
2022-09-17T03:41:19.586Z,9.51
2022-09-17T03:44:24.309Z,9.50
2022-09-17T03:47:25.801Z,9.50
2022-09-17T03:50:28.995Z,9.44
2022-09-17T03:53:30.812Z,9.42
2022-09-17T03:56:32.348Z,9.38
2022-09-17T03:59:34.134Z,9.37
2022-09-17T04:02:35.793Z,9.37
2022-09-17T04:05:38.859Z,9.33
2022-09-17T04:08:40.735Z,9.34
2022-09-17T04:11:42.517Z,9.30
2022-09-17T04:14:44.185Z,9.24
2022-09-17T04:17:45.673Z,9.22
2022-09-17T04:20:48.746Z,9.18
2022-09-17T04:23:50.745Z,9.14
2022-09-17T04:26:52.263Z,9.13
2022-09-17T04:29:53.876Z,9.14
2022-09-17T04:32:55.409Z,9.11
2022-09-17T04:35:58.398Z,9.06
2022-09-17T04:39:00.473Z,9.04
2022-09-17T04:42:02.464Z,8.98
2022-09-17T04:45:04.836Z,8.94
2022-09-17T04:48:09.409Z,8.89
2022-09-17T04:51:13.028Z,8.84
2022-09-17T04:54:16.093Z,8.84
2022-09-17T04:57:17.670Z,8.86
2022-09-17T05:00:19.876Z,8.83
2022-09-17T05:03:21.838Z,8.76
2022-09-17T05:06:24.945Z,8.75
2022-09-17T05:09:27.199Z,8.66
2022-09-17T05:12:34.455Z,8.60
2022-09-17T05:15:36.286Z,8.60
2022-09-17T05:18:38.065Z,8.58
2022-09-17T05:21:41.949Z,8.56
2022-09-17T05:24:43.726Z,8.57
2022-09-17T05:27:45.698Z,8.59
2022-09-17T05:30:47.713Z,8.58
2022-09-17T05:33:49.899Z,8.60
2022-09-17T05:36:53.218Z,8.60
2022-09-17T05:39:55.236Z,8.57
2022-09-17T05:43:00.301Z,8.57
2022-09-17T05:46:02.495Z,8.58
2022-09-17T05:49:05.116Z,8.57
2022-09-17T05:52:08.166Z,8.59
2022-09-17T05:55:09.940Z,8.62
2022-09-17T05:58:12.837Z,8.67
2022-09-17T06:01:16.446Z,8.66
2022-09-17T06:04:18.029Z,8.67
2022-09-17T06:07:21.065Z,8.70
2022-09-17T06:10:22.998Z,8.71
2022-09-17T06:13:24.633Z,8.72
2022-09-17T06:16:26.642Z,8.68
2022-09-17T06:19:30.178Z,8.69
2022-09-17T06:22:34.612Z,8.67
2022-09-17T06:25:36.518Z,8.67
2022-09-17T06:28:41.716Z,8.65
2022-09-17T06:31:45.015Z,8.69
2022-09-17T06:34:47.015Z,8.73
2022-09-17T06:37:56.091Z,8.73
2022-09-17T06:40:58.248Z,8.69
2022-09-17T06:44:00.091Z,8.70
2022-09-17T06:47:02.034Z,8.66
2022-09-17T06:50:04.251Z,8.74
2022-09-17T06:53:07.148Z,8.86
2022-09-17T06:56:09.138Z,8.87
2022-09-17T06:59:11.130Z,8.84
2022-09-17T07:02:12.960Z,8.79
2022-09-17T07:05:15.172Z,8.75
2022-09-17T07:08:18.991Z,8.76
2022-09-17T07:11:20.834Z,8.81
2022-09-17T07:14:25.070Z,8.90
2022-09-17T07:17:29.194Z,8.98
2022-09-17T07:20:33.431Z,9.07
2022-09-17T07:23:37.143Z,9.14
2022-09-17T07:26:38.846Z,9.17
2022-09-17T07:29:41.423Z,9.23
2022-09-17T07:32:43.076Z,9.28
2022-09-17T07:35:52.590Z,9.33
2022-09-17T07:38:55.928Z,9.35
2022-09-17T07:41:59.549Z,9.40
2022-09-17T07:45:03.170Z,9.52
2022-09-17T07:48:04.855Z,9.55
2022-09-17T07:51:06.806Z,9.61
2022-09-17T07:54:10.001Z,9.68
2022-09-17T07:57:11.557Z,9.67
2022-09-17T08:00:14.563Z,9.77
2022-09-17T08:03:16.881Z,9.82
2022-09-17T08:06:20.106Z,9.81
2022-09-17T08:09:23.603Z,9.74
2022-09-17T08:19:00.516Z,9.60
2022-09-17T08:22:02.075Z,9.76
2022-09-17T08:25:06.150Z,9.81
2022-09-17T08:28:07.879Z,9.82
2022-09-17T08:31:09.876Z,9.94
2022-09-17T08:34:14.223Z,10.06
2022-09-17T08:37:16.691Z,10.01
2022-09-17T08:40:23.361Z,10.08
2022-09-17T08:43:25.589Z,10.12
2022-09-17T08:46:28.170Z,10.18
2022-09-17T08:49:33.330Z,10.28
2022-09-17T08:52:56.932Z,10.34
2022-09-17T08:56:02.519Z,10.40
2022-09-17T08:59:11.057Z,10.55
2022-09-17T09:02:19.251Z,10.63
2022-09-17T09:05:25.617Z,10.57
2022-09-17T09:08:30.486Z,10.61
2022-09-17T09:11:34.814Z,10.62
2022-09-17T09:14:40.138Z,10.74
2022-09-17T09:17:44.461Z,10.85
2022-09-17T09:20:51.822Z,10.87
2022-09-17T09:23:56.855Z,10.89
2022-09-17T09:27:04.823Z,10.91
2022-09-17T09:30:10.744Z,11.04
2022-09-17T09:33:14.433Z,11.13
2022-09-17T09:36:21.805Z,11.13
2022-09-17T09:39:26.194Z,11.22
2022-09-17T09:42:30.564Z,11.25
2022-09-17T09:45:39.498Z,11.37
2022-09-17T09:48:47.299Z,11.39
2022-09-17T09:51:54.960Z,11.46
2022-09-17T09:55:02.987Z,11.50
2022-09-17T09:58:12.570Z,11.46
2022-09-17T10:01:18.381Z,11.39
2022-09-17T10:04:22.018Z,11.36
2022-09-17T10:07:23.705Z,11.42
2022-09-17T10:10:25.919Z,11.32
2022-09-17T10:13:29.729Z,11.26
2022-09-17T10:16:32.289Z,11.20
2022-09-17T10:19:34.280Z,11.15
2022-09-17T10:22:37.189Z,11.13
2022-09-17T10:25:42.545Z,11.30
2022-09-17T10:28:49.259Z,11.59
2022-09-17T10:31:51.972Z,11.76
2022-09-17T10:35:04.767Z,11.97
2022-09-17T10:38:26.584Z,11.86
2022-09-17T10:41:28.317Z,11.93
2022-09-17T10:44:33.566Z,12.06
2022-09-17T10:47:37.473Z,11.94
2022-09-17T10:50:39.268Z,12.00
2022-09-17T10:53:56.822Z,12.13
2022-09-17T10:56:59.874Z,12.12
2022-09-17T11:00:11.124Z,12.09
2022-09-17T11:03:22.913Z,11.98
2022-09-17T11:06:40.037Z,11.86
2022-09-17T11:09:47.443Z,11.84
2022-09-17T11:12:57.722Z,12.04
2022-09-17T11:16:10.016Z,12.11
2022-09-17T11:19:17.288Z,12.11
2022-09-17T11:22:24.189Z,12.15
2022-09-17T11:25:38.883Z,12.24
2022-09-17T11:28:47.725Z,12.33
2022-09-17T11:31:56.656Z,12.21
2022-09-17T11:35:00.376Z,12.46
2022-09-17T11:38:05.269Z,12.49
2022-09-17T11:41:08.869Z,12.48
2022-09-17T11:44:13.766Z,12.36
2022-09-17T11:47:19.478Z,12.22
2022-09-17T11:50:23.203Z,12.26
2022-09-17T11:53:29.537Z,12.30
2022-09-17T11:56:34.534Z,12.48
2022-09-17T11:59:38.759Z,12.48
2022-09-17T12:02:47.493Z,12.31
2022-09-17T12:05:53.388Z,11.75
2022-09-17T12:08:59.465Z,11.16
2022-09-17T12:12:04.171Z,10.90
2022-09-17T12:15:07.707Z,10.88
2022-09-17T12:18:32.109Z,11.07
2022-09-17T12:21:40.134Z,11.35
2022-09-17T12:24:43.216Z,11.65
2022-09-17T12:27:52.916Z,11.79
2022-09-17T12:31:00.287Z,11.81
2022-09-17T12:34:08.866Z,11.71
2022-09-17T12:37:14.254Z,11.59
2022-09-17T12:40:22.219Z,11.37
2022-09-17T12:43:35.987Z,11.11
2022-09-17T12:46:46.617Z,11.00
2022-09-17T12:49:57.939Z,11.08
2022-09-17T12:53:10.118Z,11.37
2022-09-17T12:56:22.424Z,11.65
2022-09-17T12:59:29.114Z,11.85
2022-09-17T13:02:33.647Z,12.03
2022-09-17T13:05:42.897Z,12.18
2022-09-17T13:09:03.074Z,12.40
2022-09-17T13:12:09.085Z,12.74
2022-09-17T13:15:28.404Z,12.74
2022-09-17T13:18:35.020Z,12.60
2022-09-17T13:21:41.678Z,12.58
2022-09-17T13:24:47.099Z,12.46
2022-09-17T13:27:50.258Z,12.47
2022-09-17T13:30:55.716Z,12.74
2022-09-17T13:33:58.464Z,12.89
2022-09-17T13:37:06.530Z,13.07
2022-09-17T13:40:22.270Z,13.20
2022-09-17T13:43:27.762Z,13.28
2022-09-17T13:46:32.803Z,13.25
2022-09-17T13:49:34.708Z,13.18
2022-09-17T13:52:46.114Z,13.10
2022-09-17T13:55:49.520Z,13.26
2022-09-17T13:58:51.656Z,13.16
2022-09-17T14:02:02.975Z,12.96
2022-09-17T14:05:25.022Z,13.03
2022-09-17T14:08:47.698Z,13.17
2022-09-17T14:11:51.504Z,13.29
2022-09-17T14:15:06.419Z,13.32
2022-09-17T14:18:25.997Z,13.29
2022-09-17T14:21:31.551Z,13.16
2022-09-17T14:24:45.473Z,13.08
2022-09-17T14:27:54.020Z,13.15
2022-09-17T14:30:55.952Z,13.24
2022-09-17T14:34:00.721Z,13.13
2022-09-17T14:37:02.475Z,12.99
2022-09-17T14:40:10.805Z,13.12
2022-09-17T14:43:19.632Z,13.17
2022-09-17T14:46:23.530Z,13.06
2022-09-17T14:49:26.607Z,13.04
2022-09-17T14:52:32.775Z,13.04
2022-09-17T14:55:40.584Z,13.10
2022-09-17T14:58:46.242Z,12.96
2022-09-17T15:01:48.570Z,12.91
2022-09-17T15:04:57.881Z,12.59
2022-09-17T15:08:10.559Z,12.44
2022-09-17T15:11:22.249Z,12.38
2022-09-17T15:14:33.376Z,12.44
2022-09-17T15:17:35.368Z,12.72
2022-09-17T15:20:37.151Z,12.76
2022-09-17T15:23:43.014Z,12.57
2022-09-17T15:26:55.080Z,12.55
2022-09-17T15:29:58.781Z,12.50
2022-09-17T15:33:06.284Z,12.39
2022-09-17T15:36:16.316Z,12.37
2022-09-17T15:39:31.290Z,12.28
2022-09-17T15:42:34.913Z,12.20
2022-09-17T15:45:40.041Z,12.18
2022-09-17T15:48:42.151Z,12.06
2022-09-17T15:51:43.830Z,11.88
2022-09-17T15:54:45.810Z,11.80
2022-09-17T15:57:48.946Z,11.71
2022-09-17T16:01:19.571Z,11.68
2022-09-17T16:04:22.945Z,11.72
2022-09-17T16:07:29.221Z,11.67
2022-09-17T16:10:31.257Z,11.56
2022-09-17T16:13:36.002Z,11.58
2022-09-17T16:16:41.442Z,11.64
2022-09-17T16:19:44.766Z,11.62
2022-09-17T16:22:50.056Z,11.15
2022-09-17T16:25:52.413Z,10.56
2022-09-17T16:28:59.343Z,10.25
2022-09-17T16:32:02.134Z,10.07
2022-09-17T16:35:05.208Z,10.05
2022-09-17T16:38:07.305Z,10.14
2022-09-17T16:41:17.235Z,10.09
2022-09-17T16:44:20.883Z,10.13
2022-09-17T16:47:24.793Z,10.28
2022-09-17T16:50:34.766Z,10.37
2022-09-17T16:53:39.967Z,10.44
2022-09-17T16:56:44.675Z,10.41
2022-09-17T16:59:47.902Z,10.45
2022-09-17T17:02:53.404Z,10.53
2022-09-17T17:05:55.515Z,10.59
2022-09-17T17:08:57.630Z,10.64
2022-09-17T17:11:59.209Z,10.70
2022-09-17T17:15:04.865Z,10.69
2022-09-17T17:18:06.751Z,10.65
2022-09-17T17:21:12.621Z,10.64
2022-09-17T17:24:17.695Z,10.55
2022-09-17T17:27:19.729Z,10.48
2022-09-17T17:30:35.043Z,10.45
2022-09-17T17:33:41.670Z,10.38
2022-09-17T17:36:48.693Z,10.31
2022-09-17T17:39:52.397Z,10.22
2022-09-17T17:43:06.186Z,10.16
2022-09-17T17:46:10.510Z,10.09
2022-09-17T17:49:19.886Z,10.03
2022-09-17T17:52:25.135Z,9.99
2022-09-17T17:55:28.844Z,9.96
2022-09-17T17:58:31.295Z,9.92
2022-09-17T18:01:35.136Z,9.91
2022-09-17T18:04:41.099Z,9.86
2022-09-17T18:07:50.494Z,9.81
2022-09-17T18:10:53.237Z,9.77
2022-09-17T18:13:58.402Z,9.80
2022-09-17T18:17:00.272Z,9.76
2022-09-17T18:20:05.208Z,9.77
2022-09-17T18:23:08.547Z,9.79
2022-09-17T18:26:14.607Z,9.81
2022-09-17T18:29:24.779Z,9.80
2022-09-17T18:32:29.730Z,9.75
2022-09-17T18:35:38.530Z,9.74
2022-09-17T18:38:42.268Z,9.68
2022-09-17T18:41:47.869Z,9.66
2022-09-17T18:44:54.019Z,9.62
2022-09-17T18:47:57.060Z,9.57
2022-09-17T18:51:04.863Z,9.61
2022-09-17T18:54:06.809Z,9.61
2022-09-17T18:57:10.586Z,9.59
2022-09-17T19:00:13.088Z,9.60
2022-09-17T19:03:14.952Z,9.56
2022-09-17T19:06:19.917Z,9.54
2022-09-17T19:09:24.803Z,9.55
2022-09-17T19:12:34.268Z,9.55
2022-09-17T19:15:36.392Z,9.55
2022-09-17T19:18:39.012Z,9.53
2022-09-17T19:21:42.779Z,9.47
2022-09-17T19:24:47.687Z,9.46
2022-09-17T19:27:49.706Z,9.45
2022-09-17T19:30:56.495Z,9.42
2022-09-17T19:34:01.719Z,9.38
2022-09-17T19:37:05.570Z,9.35
2022-09-17T19:40:10.605Z,9.30
2022-09-17T19:43:15.487Z,9.29
2022-09-17T19:46:20.992Z,9.30
2022-09-17T19:49:23.538Z,9.26
2022-09-17T19:52:34.150Z,9.25
2022-09-17T19:55:40.465Z,9.20
2022-09-17T19:58:45.690Z,9.18
2022-09-17T20:01:52.367Z,9.18
2022-09-17T20:04:54.260Z,9.15
2022-09-17T20:08:11.792Z,9.12
2022-09-17T20:11:23.326Z,9.12
2022-09-17T20:14:25.366Z,9.09
2022-09-17T20:17:30.040Z,9.06
2022-09-17T20:20:32.494Z,9.06
2022-09-17T20:23:38.792Z,9.05
2022-09-17T20:26:41.207Z,9.02
2022-09-17T20:29:43.789Z,9.00
2022-09-17T20:32:51.966Z,8.98
2022-09-17T20:35:57.316Z,8.91
2022-09-17T20:39:14.317Z,8.92
2022-09-17T20:42:28.575Z,8.91
2022-09-17T20:45:33.467Z,8.89
2022-09-17T20:48:37.218Z,8.89
2022-09-17T20:51:40.818Z,8.88
2022-09-17T20:54:44.329Z,8.86
2022-09-17T20:57:46.304Z,8.87
2022-09-17T21:00:48.129Z,8.87
2022-09-17T21:03:51.876Z,8.87
2022-09-17T21:06:56.776Z,8.83
2022-09-17T21:10:01.761Z,8.84
2022-09-17T21:13:04.013Z,8.84
2022-09-17T21:16:07.874Z,8.85
2022-09-17T21:19:14.030Z,8.86
2022-09-17T21:22:15.539Z,8.85
2022-09-17T21:25:18.643Z,8.84
2022-09-17T21:28:20.777Z,8.82
2022-09-17T21:31:31.695Z,8.82
2022-09-17T21:34:34.438Z,8.82
2022-09-17T21:44:04.257Z,8.70
2022-09-17T21:50:34.038Z,8.67
2022-09-17T21:53:40.584Z,8.64
2022-09-17T21:56:42.486Z,8.61
2022-09-17T21:59:45.645Z,8.59
2022-09-17T22:06:01.482Z,8.58
2022-09-17T22:09:04.216Z,8.57
2022-09-17T22:12:07.554Z,8.58
2022-09-17T22:15:10.905Z,8.57
2022-09-17T22:18:13.171Z,8.53
2022-09-17T22:21:15.576Z,8.52
2022-09-17T22:24:18.561Z,8.50
2022-09-17T22:27:23.373Z,8.51
2022-09-17T22:30:29.148Z,8.50
2022-09-17T22:33:34.336Z,8.49
2022-09-17T22:36:36.547Z,8.47
2022-09-17T22:39:40.989Z,8.45
2022-09-17T22:42:43.093Z,8.43
2022-09-17T22:45:46.512Z,8.41
2022-09-17T22:48:48.756Z,8.39
2022-09-17T22:51:50.830Z,8.39
2022-09-17T22:54:52.597Z,8.37
2022-09-17T22:57:54.455Z,8.35
2022-09-17T23:01:00.704Z,8.33
2022-09-17T23:04:02.823Z,8.33
2022-09-17T23:07:05.245Z,8.31
2022-09-17T23:10:07.423Z,8.28
2022-09-17T23:13:12.531Z,8.28
2022-09-17T23:16:15.818Z,8.24
2022-09-17T23:19:18.082Z,8.22
2022-09-17T23:22:21.654Z,8.21
2022-09-17T23:25:23.184Z,8.21
2022-09-17T23:28:32.763Z,8.19
2022-09-17T23:31:35.992Z,8.19
2022-09-17T23:34:40.815Z,8.18
2022-09-17T23:37:42.720Z,8.17
2022-09-17T23:40:44.969Z,8.17
2022-09-17T23:43:47.713Z,8.17
2022-09-17T23:46:50.837Z,8.17
2022-09-17T23:49:55.781Z,8.18
2022-09-17T23:52:59.105Z,8.20
2022-09-17T23:56:01.179Z,8.21
2022-09-17T23:59:03.013Z,8.24
